createdAt,value
2022-08-05T00:02:07.827Z,3.42
2022-08-05T00:04:40.283Z,3.75
2022-08-05T00:07:27.362Z,4.63
2022-08-05T00:09:58.809Z,4.75
2022-08-05T00:12:31.946Z,4.05
2022-08-05T00:14:59.781Z,4.80
2022-08-05T00:22:29.466Z,3.63
2022-08-05T00:24:59.441Z,3.60
2022-08-05T00:27:36.206Z,4.03
2022-08-05T00:30:11.501Z,4.78
2022-08-05T00:32:40.564Z,3.70
2022-08-05T00:35:09.572Z,3.90
2022-08-05T00:40:29.582Z,4.55
2022-08-05T00:43:01.627Z,4.20
2022-08-05T00:45:42.891Z,3.90
2022-08-05T00:48:18.125Z,4.63
2022-08-05T00:50:54.993Z,4.93
2022-08-05T00:53:45.353Z,4.88
2022-08-05T00:56:12.847Z,4.93
2022-08-05T01:01:48.111Z,4.63
2022-08-05T01:04:20.202Z,4.68
2022-08-05T01:06:55.144Z,4.38
2022-08-05T01:09:22.840Z,4.38
2022-08-05T01:11:52.859Z,5.35
2022-08-05T01:14:45.237Z,4.95
2022-08-05T01:17:39.903Z,4.53
2022-08-05T01:25:52.345Z,3.90
2022-08-05T01:28:39.370Z,4.35
2022-08-05T01:31:29.704Z,4.40
2022-08-05T01:34:08.868Z,3.85
2022-08-05T01:36:47.106Z,4.00
2022-08-05T01:39:34.517Z,4.57
2022-08-05T01:44:56.253Z,4.10
2022-08-05T01:47:38.894Z,4.15
2022-08-05T01:50:14.976Z,4.75
2022-08-05T01:52:59.953Z,4.00
2022-08-05T01:55:30.575Z,4.40
2022-08-05T01:58:29.257Z,4.72
2022-08-05T02:06:37.777Z,4.43
2022-08-05T02:09:08.186Z,4.05
2022-08-05T02:12:03.599Z,4.43
2022-08-05T02:14:34.385Z,4.78
2022-08-05T02:18:28.478Z,4.28
2022-08-05T02:20:24.611Z,4.90
2022-08-05T02:23:03.423Z,4.80
2022-08-05T02:30:54.125Z,4.32
2022-08-05T02:33:38.648Z,4.47
2022-08-05T02:36:15.555Z,4.10
2022-08-05T02:38:52.923Z,4.93
2022-08-05T02:41:28.953Z,4.55
2022-08-05T02:44:13.152Z,4.15
2022-08-05T02:52:25.928Z,4.15
2022-08-05T02:55:06.551Z,3.83
2022-08-05T03:00:29.147Z,5.63
2022-08-05T03:02:59.919Z,4.60
2022-08-05T03:06:54.422Z,4.40
2022-08-05T03:08:26.926Z,5.22
2022-08-05T03:14:46.104Z,4.55
2022-08-05T03:17:15.420Z,5.03
2022-08-05T03:19:42.791Z,5.28
2022-08-05T03:22:16.686Z,4.38
2022-08-05T03:24:50.702Z,5.03
2022-08-05T03:27:21.710Z,6.05
2022-08-05T03:30:08.121Z,5.28
2022-08-05T03:37:46.202Z,5.93
2022-08-05T03:40:24.427Z,4.78
2022-08-05T03:43:01.474Z,4.97
2022-08-05T03:45:57.861Z,5.00
2022-08-05T03:48:29.860Z,5.75
2022-08-05T03:52:37.866Z,4.32
2022-08-05T03:55:50.404Z,5.50
2022-08-05T04:02:52.285Z,5.03
2022-08-05T04:05:33.280Z,5.22
2022-08-05T04:08:29.608Z,5.68
2022-08-05T04:10:59.516Z,5.03
2022-08-05T04:13:51.161Z,4.90
2022-08-05T04:16:24.319Z,4.45
2022-08-05T04:19:00.908Z,5.25
2022-08-05T04:26:38.696Z,5.75
2022-08-05T04:29:08.341Z,5.40
2022-08-05T04:31:38.695Z,5.00
2022-08-05T04:36:56.050Z,5.28
2022-08-05T04:39:27.567Z,5.13
2022-08-05T04:41:55.536Z,5.20
2022-08-05T04:49:38.415Z,6.13
2022-08-05T04:52:19.499Z,5.05
2022-08-05T04:54:49.437Z,5.40
2022-08-05T04:57:19.171Z,5.90
2022-08-05T04:59:49.725Z,5.88
2022-08-05T05:02:36.520Z,6.03
2022-08-05T05:05:26.128Z,4.65
2022-08-05T05:13:04.220Z,4.85
2022-08-05T05:15:56.481Z,4.68
2022-08-05T05:18:31.158Z,5.43
2022-08-05T05:21:03.332Z,5.03
2022-08-05T05:23:39.228Z,5.35
2022-08-05T05:26:28.601Z,4.95
2022-08-05T05:29:00.655Z,4.88
2022-08-05T05:38:59.137Z,5.55
2022-08-05T05:41:40.383Z,5.35
2022-08-05T05:44:35.875Z,4.70
2022-08-05T05:47:04.251Z,5.45
2022-08-05T05:49:33.115Z,4.63
2022-08-05T05:52:01.186Z,4.63
2022-08-05T05:54:50.835Z,5.22
2022-08-05T06:01:13.050Z,4.97
2022-08-05T06:04:01.555Z,4.30
2022-08-05T06:06:33.253Z,4.13
2022-08-05T06:09:04.278Z,5.55
2022-08-05T06:11:35.059Z,5.10
2022-08-05T06:14:08.465Z,4.97
2022-08-05T06:16:37.553Z,4.88
2022-08-05T06:21:49.724Z,4.60
2022-08-05T06:24:25.658Z,4.68
2022-08-05T06:26:55.496Z,4.93
2022-08-05T06:29:48.993Z,5.25
2022-08-05T06:32:25.146Z,4.80
2022-08-05T06:34:59.597Z,4.50
2022-08-05T06:37:55.587Z,4.55
2022-08-05T06:44:10.055Z,5.18
2022-08-05T06:46:39.514Z,4.50
2022-08-05T06:49:10.014Z,4.75
2022-08-05T06:51:40.993Z,4.72
2022-08-05T06:54:10.029Z,4.57
2022-08-05T06:56:54.387Z,4.88
2022-08-05T06:59:22.660Z,3.50
2022-08-05T07:04:30.150Z,4.40
2022-08-05T07:06:59.258Z,4.03
2022-08-05T07:09:32.400Z,4.57
2022-08-05T07:12:08.278Z,4.23
2022-08-05T07:14:54.169Z,3.60
2022-08-05T07:18:00.161Z,3.85
2022-08-05T07:25:54.345Z,4.28
2022-08-05T07:28:08.372Z,3.90
2022-08-05T07:30:41.260Z,3.92
2022-08-05T07:33:16.242Z,4.43
2022-08-05T07:36:05.387Z,3.67
2022-08-05T07:38:43.491Z,3.50
2022-08-05T07:42:14.526Z,4.53
2022-08-05T07:48:00.879Z,5.05
2022-08-05T07:50:33.480Z,4.25
2022-08-05T07:53:01.041Z,5.22
2022-08-05T07:56:04.740Z,4.00
2022-08-05T08:01:12.324Z,4.20
2022-08-05T08:03:44.271Z,3.83
2022-08-05T08:08:56.522Z,3.55
2022-08-05T08:11:27.767Z,3.55
2022-08-05T08:14:17.514Z,4.00
2022-08-05T08:16:50.721Z,4.03
2022-08-05T08:20:22.635Z,3.38
2022-08-05T08:22:15.924Z,3.60
2022-08-05T08:24:51.301Z,4.25
2022-08-05T08:32:28.027Z,3.47
2022-08-05T08:34:55.740Z,3.30
2022-08-05T08:37:28.070Z,4.50
2022-08-05T08:39:55.832Z,3.75
2022-08-05T08:42:34.140Z,3.20
2022-08-05T08:45:19.238Z,3.70
2022-08-05T08:52:03.127Z,4.10
2022-08-05T08:54:11.274Z,3.55
2022-08-05T08:56:47.893Z,3.50
2022-08-05T08:59:20.782Z,4.13
2022-08-05T09:01:57.054Z,3.67
2022-08-05T09:04:30.350Z,3.30
2022-08-05T09:07:00.381Z,3.63
2022-08-05T09:15:54.122Z,4.07
2022-08-05T09:18:22.505Z,3.83
2022-08-05T09:20:51.214Z,3.97
2022-08-05T09:23:21.794Z,3.67
2022-08-05T09:26:09.770Z,3.50
2022-08-05T09:28:39.801Z,3.50
2022-08-05T09:31:44.023Z,2.92
2022-08-05T09:36:59.916Z,3.10
2022-08-05T09:39:45.116Z,3.78
2022-08-05T09:42:23.898Z,2.95
2022-08-05T09:47:55.689Z,2.88
2022-08-05T09:50:44.111Z,2.95
2022-08-05T09:53:22.902Z,2.92
2022-08-05T10:03:56.762Z,4.28
2022-08-05T10:06:21.014Z,3.77
2022-08-05T10:08:50.307Z,3.58
2022-08-05T10:11:21.641Z,3.50
2022-08-05T10:13:54.680Z,3.45
2022-08-05T10:16:41.573Z,3.70
2022-08-05T10:19:13.548Z,3.88
2022-08-05T10:30:06.419Z,2.70
2022-08-05T10:32:52.877Z,3.58
2022-08-05T10:35:40.399Z,4.15
2022-08-05T10:38:12.795Z,3.63
2022-08-05T10:40:58.069Z,3.42
2022-08-05T10:43:45.583Z,3.83
2022-08-05T10:46:23.751Z,3.25
2022-08-05T10:54:05.966Z,4.07
2022-08-05T10:57:00.228Z,3.50
2022-08-05T11:00:02.873Z,3.72
2022-08-05T11:02:37.609Z,3.38
2022-08-05T11:05:10.510Z,2.88
2022-08-05T11:08:02.952Z,2.97
2022-08-05T11:20:17.442Z,3.47
2022-08-05T11:22:53.975Z,2.90
2022-08-05T11:26:04.839Z,2.80
2022-08-05T11:28:25.911Z,3.10
2022-08-05T11:30:58.407Z,3.08
2022-08-05T11:33:46.503Z,3.10
2022-08-05T11:41:35.122Z,2.72
2022-08-05T11:44:05.460Z,2.67
2022-08-05T11:46:37.940Z,2.72
2022-08-05T11:49:28.548Z,2.50
2022-08-05T11:51:57.411Z,2.40
2022-08-05T11:54:40.714Z,2.67
2022-08-05T11:57:24.876Z,2.47
2022-08-05T12:08:03.379Z,2.05
2022-08-05T12:10:43.589Z,1.77
2022-08-05T12:13:18.481Z,1.60
2022-08-05T12:15:56.260Z,2.05
2022-08-05T12:18:38.849Z,1.83
2022-08-05T12:21:15.386Z,1.50
2022-08-05T12:24:04.359Z,2.20
2022-08-05T12:31:57.425Z,2.22
2022-08-05T12:34:30.218Z,1.60
2022-08-05T12:37:10.470Z,2.03
2022-08-05T12:39:44.873Z,2.67
2022-08-05T12:42:21.556Z,2.33
2022-08-05T12:44:52.954Z,2.30
2022-08-05T12:50:21.373Z,2.10
2022-08-05T12:53:01.360Z,2.55
2022-08-05T12:58:49.373Z,2.00
2022-08-05T13:02:02.435Z,2.60
2022-08-05T13:03:42.019Z,2.55
2022-08-05T13:08:57.687Z,1.95
2022-08-05T13:12:02.101Z,1.70
2022-08-05T13:14:36.196Z,1.90
2022-08-05T13:17:15.747Z,1.90
2022-08-05T13:20:06.868Z,2.35
2022-08-05T13:22:40.151Z,2.25
2022-08-05T13:30:32.879Z,1.40
2022-08-05T13:33:04.438Z,2.13
2022-08-05T13:35:47.449Z,1.80
2022-08-05T13:38:30.473Z,1.92
2022-08-05T13:41:01.960Z,1.90
2022-08-05T13:43:45.165Z,1.58
2022-08-05T13:46:35.677Z,1.83
2022-08-05T13:51:46.578Z,1.27
2022-08-05T13:54:17.189Z,1.40
2022-08-05T13:56:52.004Z,1.70
2022-08-05T13:59:24.905Z,1.58
2022-08-05T14:01:59.865Z,1.88
2022-08-05T14:04:52.084Z,1.80
2022-08-05T14:08:00.783Z,1.75
2022-08-05T14:14:30.866Z,1.65
2022-08-05T14:17:01.525Z,1.90
2022-08-05T14:19:30.433Z,2.17
2022-08-05T14:22:17.838Z,2.17
2022-08-05T14:24:47.704Z,1.85
2022-08-05T14:27:18.681Z,2.00
2022-08-05T14:32:31.281Z,1.98
2022-08-05T14:35:00.780Z,1.42
2022-08-05T14:37:42.201Z,1.60
2022-08-05T14:40:16.850Z,1.42
2022-08-05T14:42:44.537Z,1.77
2022-08-05T14:45:12.127Z,1.52
2022-08-05T14:48:02.698Z,1.85
2022-08-05T14:55:42.260Z,1.75
2022-08-05T14:58:13.840Z,1.70
2022-08-05T15:00:58.416Z,1.65
2022-08-05T15:03:33.799Z,2.08
2022-08-05T15:06:15.296Z,1.70
2022-08-05T15:09:01.330Z,1.98
2022-08-05T15:16:51.092Z,1.73
2022-08-05T15:19:23.618Z,2.03
2022-08-05T15:21:51.443Z,2.10
2022-08-05T15:24:20.713Z,1.70
2022-08-05T15:26:50.515Z,2.97
2022-08-05T15:29:17.910Z,2.50
2022-08-05T15:31:53.123Z,2.20
2022-08-05T15:36:58.641Z,2.10
2022-08-05T15:41:02.518Z,2.28
2022-08-05T15:42:56.189Z,2.17
2022-08-05T15:45:13.077Z,1.60
2022-08-05T15:47:42.826Z,1.83
2022-08-05T15:50:15.120Z,2.40
2022-08-05T15:56:02.090Z,2.50
2022-08-05T15:58:16.351Z,1.77
2022-08-05T16:01:03.452Z,2.22
2022-08-05T16:03:32.629Z,2.50
2022-08-05T16:06:02.366Z,1.87
2022-08-05T16:08:31.190Z,2.50
2022-08-05T16:11:00.537Z,2.00
2022-08-05T16:16:25.409Z,2.55
2022-08-05T16:18:53.146Z,2.00
2022-08-05T16:22:00.619Z,2.65
2022-08-05T16:24:12.782Z,2.65
2022-08-05T16:27:03.475Z,2.70
2022-08-05T16:29:37.366Z,2.50
2022-08-05T16:36:51.424Z,2.75
2022-08-05T16:39:22.121Z,2.33
2022-08-05T16:42:14.782Z,2.78
2022-08-05T16:44:44.434Z,2.90
2022-08-05T16:47:28.682Z,2.72
2022-08-05T16:50:05.399Z,2.50
2022-08-05T16:57:50.479Z,2.65
2022-08-05T17:00:25.928Z,2.55
2022-08-05T17:03:03.858Z,2.97
2022-08-05T17:05:37.625Z,2.13
2022-08-05T17:08:05.208Z,2.13
2022-08-05T17:10:36.879Z,2.92
2022-08-05T17:13:05.661Z,2.28
2022-08-05T17:18:22.479Z,2.85
2022-08-05T17:20:51.222Z,2.90
2022-08-05T17:24:04.595Z,2.72
2022-08-05T17:26:09.631Z,3.83
2022-08-05T17:28:40.882Z,4.43
2022-08-05T17:31:24.650Z,3.50
2022-08-05T17:38:35.214Z,2.60
2022-08-05T17:41:02.758Z,2.70
2022-08-05T17:43:50.361Z,2.70
2022-08-05T17:46:21.215Z,2.78
2022-08-05T17:48:54.175Z,2.92
2022-08-05T17:51:22.353Z,2.75
2022-08-05T17:53:54.864Z,3.55
2022-08-05T17:56:22.940Z,3.63
2022-08-05T18:04:04.453Z,3.33
2022-08-05T18:06:33.459Z,3.42
2022-08-05T18:09:03.410Z,3.50
2022-08-05T18:11:33.126Z,3.28
2022-08-05T18:14:13.209Z,3.25
2022-08-05T18:16:46.817Z,3.97
2022-08-05T18:19:22.654Z,3.25
2022-08-05T18:25:33.112Z,4.18
2022-08-05T18:28:05.052Z,3.30
2022-08-05T18:30:33.628Z,3.90
2022-08-05T18:33:02.393Z,4.07
2022-08-05T18:36:01.126Z,4.82
2022-08-05T18:38:19.328Z,3.30
2022-08-05T18:41:58.150Z,4.10
2022-08-05T18:52:04.881Z,4.60
2022-08-05T18:54:21.435Z,4.00
2022-08-05T18:56:52.011Z,4.10
2022-08-05T18:59:44.060Z,4.43
2022-08-05T19:02:26.490Z,4.68
2022-08-05T19:05:02.210Z,4.40
2022-08-05T19:12:58.713Z,4.35
2022-08-05T19:15:58.876Z,4.60
2022-08-05T19:18:22.315Z,4.00
2022-08-05T19:20:53.085Z,5.00
2022-08-05T19:26:11.324Z,4.55
2022-08-05T19:31:51.034Z,4.63
2022-08-05T19:34:19.092Z,4.35
2022-08-05T19:36:50.002Z,5.25
2022-08-05T19:39:17.953Z,5.95
2022-08-05T19:42:07.363Z,6.68
2022-08-05T19:44:36.271Z,5.45
2022-08-05T19:47:10.166Z,5.63
2022-08-05T19:52:31.227Z,5.22
2022-08-05T19:55:06.831Z,5.68
2022-08-05T19:57:46.383Z,4.72
2022-08-05T20:00:24.388Z,4.90
2022-08-05T20:02:51.951Z,4.72
2022-08-05T20:05:24.490Z,4.88
2022-08-05T20:07:58.805Z,4.55
2022-08-05T20:20:51.374Z,5.13
2022-08-05T20:23:23.833Z,4.32
2022-08-05T20:26:16.070Z,5.00
2022-08-05T20:28:56.918Z,4.20
2022-08-05T20:31:42.123Z,4.63
2022-08-05T20:34:12.350Z,4.63
2022-08-05T20:41:45.057Z,4.63
2022-08-05T20:44:18.397Z,5.15
2022-08-05T20:46:50.163Z,5.97
2022-08-05T20:49:24.050Z,4.20
2022-08-05T20:51:53.698Z,4.38
2022-08-05T20:54:43.631Z,5.07
2022-08-05T21:00:21.199Z,5.68
2022-08-05T21:02:51.414Z,4.85
2022-08-05T21:05:22.069Z,5.30
2022-08-05T21:12:57.655Z,4.43
2022-08-05T21:15:37.223Z,5.45
2022-08-05T21:21:24.423Z,4.90
2022-08-05T21:23:52.275Z,4.03
2022-08-05T21:26:21.802Z,5.68
2022-08-05T21:28:53.938Z,5.10
2022-08-05T21:31:41.385Z,4.78
2022-08-05T21:34:12.488Z,4.53
2022-08-05T21:36:42.401Z,4.45
2022-08-05T21:47:54.777Z,5.60
2022-08-05T21:50:10.117Z,5.38
2022-08-05T21:52:47.353Z,4.57
2022-08-05T21:55:15.270Z,4.00
2022-08-05T21:57:43.200Z,4.97
2022-08-05T22:00:12.133Z,4.05
2022-08-05T22:02:43.603Z,5.03
2022-08-05T22:09:14.636Z,3.80
2022-08-05T22:11:46.577Z,4.63
2022-08-05T22:14:33.304Z,4.28
2022-08-05T22:17:05.386Z,4.18
2022-08-05T22:20:00.644Z,5.43
2022-08-05T22:22:26.887Z,5.00
2022-08-05T22:25:18.015Z,4.55
2022-08-05T22:34:59.231Z,5.97
2022-08-05T22:37:32.126Z,5.33
2022-08-05T22:40:20.612Z,5.57
2022-08-05T22:42:53.114Z,5.25
2022-08-05T22:45:26.431Z,5.45
2022-08-05T22:47:56.927Z,5.20
2022-08-05T22:58:03.421Z,6.03
2022-08-05T23:00:32.749Z,4.85
2022-08-05T23:03:04.313Z,5.22
2022-08-05T23:05:36.133Z,5.85
2022-08-05T23:08:04.150Z,5.57
2022-08-05T23:10:32.787Z,6.35
2022-08-05T23:13:03.886Z,5.93
2022-08-05T23:19:50.841Z,6.30
2022-08-05T23:22:27.291Z,5.50
2022-08-05T23:24:56.526Z,6.15
2022-08-05T23:27:31.320Z,5.53
2022-08-05T23:30:14.599Z,5.22
2022-08-05T23:32:45.261Z,5.45
2022-08-05T23:40:12.197Z,5.13
2022-08-05T23:42:41.725Z,6.47
2022-08-05T23:45:15.928Z,5.32
2022-08-05T23:47:47.726Z,5.57
2022-08-05T23:50:20.263Z,5.72
2022-08-05T23:52:51.500Z,5.68
2022-08-05T23:58:07.380Z,5.25
